sensor_id;sensor_type;location;lat;lon;timestamp;temperature;humidity
1806;DHT22;901;48.142;11.516;2022-11-15T00:02:13;5.30;99.90
1806;DHT22;901;48.142;11.516;2022-11-15T00:04:42;5.30;99.90
1806;DHT22;901;48.142;11.516;2022-11-15T00:07:08;5.30;99.90
1806;DHT22;901;48.142;11.516;2022-11-15T00:09:35;5.30;99.90
1806;DHT22;901;48.142;11.516;2022-11-15T00:12:02;5.30;99.90
1806;DHT22;901;48.142;11.516;2022-11-15T00:14:29;5.30;99.90
1806;DHT22;901;48.142;11.516;2022-11-15T00:16:56;5.30;99.90
1806;DHT22;901;48.142;11.516;2022-11-15T00:19:23;5.30;99.90
1806;DHT22;901;48.142;11.516;2022-11-15T00:21:51;5.30;99.90
1806;DHT22;901;48.142;11.516;2022-11-15T00:24:18;5.30;99.90
1806;DHT22;901;48.142;11.516;2022-11-15T00:26:45;5.30;99.90
1806;DHT22;901;48.142;11.516;2022-11-15T00:29:11;5.40;99.90
1806;DHT22;901;48.142;11.516;2022-11-15T00:31:38;5.30;99.90
1806;DHT22;901;48.142;11.516;2022-11-15T00:34:05;5.40;99.90
1806;DHT22;901;48.142;11.516;2022-11-15T00:36:33;5.30;99.90
1806;DHT22;901;48.142;11.516;2022-11-15T00:39:03;5.30;99.90
1806;DHT22;901;48.142;11.516;2022-11-15T00:41:31;5.30;99.90
1806;DHT22;901;48.142;11.516;2022-11-15T00:44:00;5.30;99.90
1806;DHT22;901;48.142;11.516;2022-11-15T00:46:26;5.30;99.90
1806;DHT22;901;48.142;11.516;2022-11-15T00:48:53;5.30;99.90
1806;DHT22;901;48.142;11.516;2022-11-15T00:51:20;5.20;99.90
1806;DHT22;901;48.142;11.516;2022-11-15T00:53:47;5.20;99.90
1806;DHT22;901;48.142;11.516;2022-11-15T00:56:15;5.20;99.90
1806;DHT22;901;48.142;11.516;2022-11-15T00:58:42;5.20;99.90
1806;DHT22;901;48.142;11.516;2022-11-15T01:01:11;5.20;99.90
1806;DHT22;901;48.142;11.516;2022-11-15T01:03:39;5.20;99.90
1806;DHT22;901;48.142;11.516;2022-11-15T01:06:07;5.10;99.90
1806;DHT22;901;48.142;11.516;2022-11-15T01:08:34;5.10;99.90
1806;DHT22;901;48.142;11.516;2022-11-15T01:11:01;5.10;99.90
1806;DHT22;901;48.142;11.516;2022-11-15T01:13:31;5.10;99.90
1806;DHT22;901;48.142;11.516;2022-11-15T01:15:58;5.10;99.90
1806;DHT22;901;48.142;11.516;2022-11-15T01:18:25;5.10;99.90
1806;DHT22;901;48.142;11.516;2022-11-15T01:20:52;5.10;99.90
1806;DHT22;901;48.142;11.516;2022-11-15T01:23:18;5.10;99.90
1806;DHT22;901;48.142;11.516;2022-11-15T01:25:45;5.10;99.90
1806;DHT22;901;48.142;11.516;2022-11-15T01:28:12;5.10;99.90
1806;DHT22;901;48.142;11.516;2022-11-15T01:30:40;5.00;99.90
1806;DHT22;901;48.142;11.516;2022-11-15T01:33:07;5.00;99.90
1806;DHT22;901;48.142;11.516;2022-11-15T01:35:38;5.00;99.90
1806;DHT22;901;48.142;11.516;2022-11-15T01:38:05;4.90;99.90
1806;DHT22;901;48.142;11.516;2022-11-15T01:40:32;5.00;99.90
1806;DHT22;901;48.142;11.516;2022-11-15T01:42:58;4.90;99.90
1806;DHT22;901;48.142;11.516;2022-11-15T01:45:26;4.90;99.90
1806;DHT22;901;48.142;11.516;2022-11-15T01:47:55;4.90;99.90
1806;DHT22;901;48.142;11.516;2022-11-15T01:50:24;4.80;99.90
1806;DHT22;901;48.142;11.516;2022-11-15T01:52:53;4.70;99.90
1806;DHT22;901;48.142;11.516;2022-11-15T01:55:23;4.70;99.90
1806;DHT22;901;48.142;11.516;2022-11-15T01:57:53;4.70;99.90
1806;DHT22;901;48.142;11.516;2022-11-15T02:00:21;4.70;99.90
1806;DHT22;901;48.142;11.516;2022-11-15T02:02:48;4.80;99.90
1806;DHT22;901;48.142;11.516;2022-11-15T02:05:16;4.80;99.90
1806;DHT22;901;48.142;11.516;2022-11-15T02:07:44;4.70;99.90
1806;DHT22;901;48.142;11.516;2022-11-15T02:10:16;4.50;99.90
1806;DHT22;901;48.142;11.516;2022-11-15T02:12:43;4.50;99.90
1806;DHT22;901;48.142;11.516;2022-11-15T02:15:11;4.50;99.90
1806;DHT22;901;48.142;11.516;2022-11-15T02:17:51;4.50;99.90
1806;DHT22;901;48.142;11.516;2022-11-15T02:20:35;4.50;99.90
1806;DHT22;901;48.142;11.516;2022-11-15T02:29:17;4.30;99.90
1806;DHT22;901;48.142;11.516;2022-11-15T02:31:54;4.30;99.90
1806;DHT22;901;48.142;11.516;2022-11-15T02:34:30;4.40;99.90
1806;DHT22;901;48.142;11.516;2022-11-15T02:37:05;4.30;99.90
1806;DHT22;901;48.142;11.516;2022-11-15T02:39:36;4.20;99.90
1806;DHT22;901;48.142;11.516;2022-11-15T02:42:09;4.10;99.90
1806;DHT22;901;48.142;11.516;2022-11-15T02:44:53;4.10;99.90
1806;DHT22;901;48.142;11.516;2022-11-15T02:47:24;4.00;99.90
1806;DHT22;901;48.142;11.516;2022-11-15T02:49:54;3.90;99.90
1806;DHT22;901;48.142;11.516;2022-11-15T02:52:24;3.90;99.90
1806;DHT22;901;48.142;11.516;2022-11-15T02:54:55;3.90;99.90
1806;DHT22;901;48.142;11.516;2022-11-15T02:57:33;3.90;99.90
1806;DHT22;901;48.142;11.516;2022-11-15T03:00:06;3.90;99.90
1806;DHT22;901;48.142;11.516;2022-11-15T03:02:50;3.80;99.90
1806;DHT22;901;48.142;11.516;2022-11-15T03:05:28;3.80;99.90
1806;DHT22;901;48.142;11.516;2022-11-15T03:08:02;3.80;99.90
1806;DHT22;901;48.142;11.516;2022-11-15T03:10:39;3.80;99.90
1806;DHT22;901;48.142;11.516;2022-11-15T03:13:19;3.80;99.90
1806;DHT22;901;48.142;11.516;2022-11-15T03:15:53;3.80;99.90
1806;DHT22;901;48.142;11.516;2022-11-15T03:18:29;3.80;99.90
1806;DHT22;901;48.142;11.516;2022-11-15T03:20:58;3.80;99.90
1806;DHT22;901;48.142;11.516;2022-11-15T03:23:26;3.90;99.90
1806;DHT22;901;48.142;11.516;2022-11-15T03:25:56;3.90;99.90
1806;DHT22;901;48.142;11.516;2022-11-15T03:28:28;3.80;99.90
1806;DHT22;901;48.142;11.516;2022-11-15T03:30:59;3.80;99.90
1806;DHT22;901;48.142;11.516;2022-11-15T03:33:51;3.80;99.90
1806;DHT22;901;48.142;11.516;2022-11-15T03:36:22;3.80;99.90
1806;DHT22;901;48.142;11.516;2022-11-15T03:38:52;3.80;99.90
1806;DHT22;901;48.142;11.516;2022-11-15T03:41:23;3.80;99.90
1806;DHT22;901;48.142;11.516;2022-11-15T03:43:53;3.80;99.90
1806;DHT22;901;48.142;11.516;2022-11-15T03:46:25;3.90;99.90
1806;DHT22;901;48.142;11.516;2022-11-15T03:49:01;3.80;99.90
1806;DHT22;901;48.142;11.516;2022-11-15T03:51:30;3.80;99.90
1806;DHT22;901;48.142;11.516;2022-11-15T03:53:57;3.80;99.90
1806;DHT22;901;48.142;11.516;2022-11-15T03:56:24;3.70;99.90
1806;DHT22;901;48.142;11.516;2022-11-15T03:58:51;3.70;99.90
1806;DHT22;901;48.142;11.516;2022-11-15T04:01:18;3.70;99.90
1806;DHT22;901;48.142;11.516;2022-11-15T04:03:45;3.70;99.90
1806;DHT22;901;48.142;11.516;2022-11-15T04:06:13;3.70;99.90
1806;DHT22;901;48.142;11.516;2022-11-15T04:08:39;3.60;99.90
1806;DHT22;901;48.142;11.516;2022-11-15T04:11:06;3.60;99.90
1806;DHT22;901;48.142;11.516;2022-11-15T04:13:33;3.60;99.90
1806;DHT22;901;48.142;11.516;2022-11-15T04:16:00;3.60;99.90
1806;DHT22;901;48.142;11.516;2022-11-15T04:18:27;3.60;99.90
1806;DHT22;901;48.142;11.516;2022-11-15T04:20:54;3.70;99.90
1806;DHT22;901;48.142;11.516;2022-11-15T04:23:40;3.70;99.90
1806;DHT22;901;48.142;11.516;2022-11-15T04:26:26;3.70;99.90
1806;DHT22;901;48.142;11.516;2022-11-15T04:28:53;3.80;99.90
1806;DHT22;901;48.142;11.516;2022-11-15T04:31:38;3.80;99.90
1806;DHT22;901;48.142;11.516;2022-11-15T04:34:04;3.70;99.90
1806;DHT22;901;48.142;11.516;2022-11-15T04:36:31;3.70;99.90
1806;DHT22;901;48.142;11.516;2022-11-15T04:39:25;3.80;99.90
1806;DHT22;901;48.142;11.516;2022-11-15T04:41:52;3.70;99.90
1806;DHT22;901;48.142;11.516;2022-11-15T04:44:18;3.70;99.90
1806;DHT22;901;48.142;11.516;2022-11-15T04:46:45;3.70;99.90
1806;DHT22;901;48.142;11.516;2022-11-15T04:49:12;3.70;99.90
1806;DHT22;901;48.142;11.516;2022-11-15T04:51:39;3.70;99.90
1806;DHT22;901;48.142;11.516;2022-11-15T04:54:06;3.60;99.90
1806;DHT22;901;48.142;11.516;2022-11-15T04:56:34;3.60;99.90
1806;DHT22;901;48.142;11.516;2022-11-15T04:59:01;3.60;99.90
1806;DHT22;901;48.142;11.516;2022-11-15T05:01:27;3.60;99.90
1806;DHT22;901;48.142;11.516;2022-11-15T05:03:54;3.60;99.90
1806;DHT22;901;48.142;11.516;2022-11-15T05:06:38;3.50;99.90
1806;DHT22;901;48.142;11.516;2022-11-15T05:09:05;3.50;99.90
1806;DHT22;901;48.142;11.516;2022-11-15T05:11:33;3.50;99.90
1806;DHT22;901;48.142;11.516;2022-11-15T05:14:00;3.40;99.90
1806;DHT22;901;48.142;11.516;2022-11-15T05:16:27;3.40;99.90
1806;DHT22;901;48.142;11.516;2022-11-15T05:18:54;3.40;99.90
1806;DHT22;901;48.142;11.516;2022-11-15T05:21:21;3.40;99.90
1806;DHT22;901;48.142;11.516;2022-11-15T05:23:48;3.40;99.90
1806;DHT22;901;48.142;11.516;2022-11-15T05:26:16;3.40;99.90
1806;DHT22;901;48.142;11.516;2022-11-15T05:28:45;3.40;99.90
1806;DHT22;901;48.142;11.516;2022-11-15T05:31:13;3.40;99.90
1806;DHT22;901;48.142;11.516;2022-11-15T05:33:41;3.40;99.90
1806;DHT22;901;48.142;11.516;2022-11-15T05:36:13;3.40;99.90
1806;DHT22;901;48.142;11.516;2022-11-15T05:38:43;3.40;99.90
1806;DHT22;901;48.142;11.516;2022-11-15T05:41:10;3.50;99.90
1806;DHT22;901;48.142;11.516;2022-11-15T05:43:39;3.50;99.90
1806;DHT22;901;48.142;11.516;2022-11-15T05:46:08;3.60;99.90
1806;DHT22;901;48.142;11.516;2022-11-15T05:48:36;3.60;99.90
1806;DHT22;901;48.142;11.516;2022-11-15T05:51:05;3.60;99.90
1806;DHT22;901;48.142;11.516;2022-11-15T05:53:33;3.50;99.90
1806;DHT22;901;48.142;11.516;2022-11-15T05:56:02;3.50;99.90
1806;DHT22;901;48.142;11.516;2022-11-15T05:58:30;3.40;99.90
1806;DHT22;901;48.142;11.516;2022-11-15T06:00:57;3.40;99.90
1806;DHT22;901;48.142;11.516;2022-11-15T06:03:26;3.40;99.90
1806;DHT22;901;48.142;11.516;2022-11-15T06:05:53;3.40;99.90
1806;DHT22;901;48.142;11.516;2022-11-15T06:08:20;3.50;99.90
1806;DHT22;901;48.142;11.516;2022-11-15T06:10:47;3.50;99.90
1806;DHT22;901;48.142;11.516;2022-11-15T06:13:14;3.60;99.90
1806;DHT22;901;48.142;11.516;2022-11-15T06:15:40;3.60;99.90
1806;DHT22;901;48.142;11.516;2022-11-15T06:18:07;3.60;99.90
1806;DHT22;901;48.142;11.516;2022-11-15T06:20:35;3.50;99.90
1806;DHT22;901;48.142;11.516;2022-11-15T06:23:04;3.50;99.90
1806;DHT22;901;48.142;11.516;2022-11-15T06:25:31;3.50;99.90
1806;DHT22;901;48.142;11.516;2022-11-15T06:27:59;3.40;99.90
1806;DHT22;901;48.142;11.516;2022-11-15T06:30:26;3.40;99.90
1806;DHT22;901;48.142;11.516;2022-11-15T06:32:59;3.60;99.90
1806;DHT22;901;48.142;11.516;2022-11-15T06:35:27;3.60;99.90
1806;DHT22;901;48.142;11.516;2022-11-15T06:37:56;3.60;99.90
1806;DHT22;901;48.142;11.516;2022-11-15T06:40:23;3.60;99.90
1806;DHT22;901;48.142;11.516;2022-11-15T06:42:49;3.70;99.90
1806;DHT22;901;48.142;11.516;2022-11-15T06:45:16;3.70;99.90
1806;DHT22;901;48.142;11.516;2022-11-15T06:47:45;3.70;99.90
1806;DHT22;901;48.142;11.516;2022-11-15T06:50:12;3.80;99.90
1806;DHT22;901;48.142;11.516;2022-11-15T06:52:39;3.90;99.90
1806;DHT22;901;48.142;11.516;2022-11-15T06:55:08;3.90;99.90
1806;DHT22;901;48.142;11.516;2022-11-15T06:57:35;4.00;99.90
1806;DHT22;901;48.142;11.516;2022-11-15T07:00:03;4.10;99.90
1806;DHT22;901;48.142;11.516;2022-11-15T07:02:31;4.10;99.90
1806;DHT22;901;48.142;11.516;2022-11-15T07:04:57;4.20;99.90
1806;DHT22;901;48.142;11.516;2022-11-15T07:07:24;4.30;99.90
1806;DHT22;901;48.142;11.516;2022-11-15T07:09:51;4.30;99.90
1806;DHT22;901;48.142;11.516;2022-11-15T07:12:19;4.40;99.90
1806;DHT22;901;48.142;11.516;2022-11-15T07:14:46;4.50;99.90
1806;DHT22;901;48.142;11.516;2022-11-15T07:17:13;4.60;99.90
1806;DHT22;901;48.142;11.516;2022-11-15T07:19:40;4.70;99.90
1806;DHT22;901;48.142;11.516;2022-11-15T07:22:07;4.70;99.90
1806;DHT22;901;48.142;11.516;2022-11-15T07:24:34;4.80;99.90
1806;DHT22;901;48.142;11.516;2022-11-15T07:27:00;4.90;99.90
1806;DHT22;901;48.142;11.516;2022-11-15T07:29:29;5.00;99.90
1806;DHT22;901;48.142;11.516;2022-11-15T07:31:55;5.00;99.90
1806;DHT22;901;48.142;11.516;2022-11-15T07:34:23;5.10;99.90
1806;DHT22;901;48.142;11.516;2022-11-15T07:36:50;5.20;99.90
1806;DHT22;901;48.142;11.516;2022-11-15T07:39:17;5.20;99.90
1806;DHT22;901;48.142;11.516;2022-11-15T07:41:45;5.30;99.90
1806;DHT22;901;48.142;11.516;2022-11-15T07:44:13;5.40;99.90
1806;DHT22;901;48.142;11.516;2022-11-15T07:46:41;5.40;99.90
1806;DHT22;901;48.142;11.516;2022-11-15T07:49:08;5.50;99.90
1806;DHT22;901;48.142;11.516;2022-11-15T07:51:35;5.70;99.90
1806;DHT22;901;48.142;11.516;2022-11-15T07:54:02;5.90;99.90
1806;DHT22;901;48.142;11.516;2022-11-15T07:56:29;5.90;99.90
1806;DHT22;901;48.142;11.516;2022-11-15T07:58:55;5.90;99.90
1806;DHT22;901;48.142;11.516;2022-11-15T08:01:22;5.90;99.90
1806;DHT22;901;48.142;11.516;2022-11-15T08:03:51;6.10;99.90
1806;DHT22;901;48.142;11.516;2022-11-15T08:06:17;6.20;99.90
1806;DHT22;901;48.142;11.516;2022-11-15T08:08:46;6.30;99.90
1806;DHT22;901;48.142;11.516;2022-11-15T08:11:13;6.40;99.90
1806;DHT22;901;48.142;11.516;2022-11-15T08:13:40;6.60;99.90
1806;DHT22;901;48.142;11.516;2022-11-15T08:16:08;6.70;99.90
1806;DHT22;901;48.142;11.516;2022-11-15T08:18:37;6.90;99.90
1806;DHT22;901;48.142;11.516;2022-11-15T08:21:06;7.00;99.90
1806;DHT22;901;48.142;11.516;2022-11-15T08:23:32;7.10;99.90
1806;DHT22;901;48.142;11.516;2022-11-15T08:26:00;7.20;99.90
1806;DHT22;901;48.142;11.516;2022-11-15T08:28:28;7.40;99.90
1806;DHT22;901;48.142;11.516;2022-11-15T08:30:55;7.50;99.90
1806;DHT22;901;48.142;11.516;2022-11-15T08:33:22;7.60;99.90
1806;DHT22;901;48.142;11.516;2022-11-15T08:35:51;7.70;99.90
1806;DHT22;901;48.142;11.516;2022-11-15T08:38:20;7.80;99.90
1806;DHT22;901;48.142;11.516;2022-11-15T08:40:47;8.00;99.90
1806;DHT22;901;48.142;11.516;2022-11-15T08:43:13;8.20;99.90
1806;DHT22;901;48.142;11.516;2022-11-15T08:45:40;8.30;99.90
1806;DHT22;901;48.142;11.516;2022-11-15T08:48:07;8.50;99.90
1806;DHT22;901;48.142;11.516;2022-11-15T08:50:34;8.60;99.90
1806;DHT22;901;48.142;11.516;2022-11-15T08:53:05;8.80;99.90
1806;DHT22;901;48.142;11.516;2022-11-15T08:55:36;8.80;99.90
1806;DHT22;901;48.142;11.516;2022-11-15T08:58:03;8.90;99.90
1806;DHT22;901;48.142;11.516;2022-11-15T09:00:30;9.10;99.90
1806;DHT22;901;48.142;11.516;2022-11-15T09:02:57;9.20;99.90
1806;DHT22;901;48.142;11.516;2022-11-15T09:05:24;9.30;99.90
1806;DHT22;901;48.142;11.516;2022-11-15T09:07:53;9.40;99.90
1806;DHT22;901;48.142;11.516;2022-11-15T09:10:20;9.50;99.90
1806;DHT22;901;48.142;11.516;2022-11-15T09:12:48;9.60;99.90
1806;DHT22;901;48.142;11.516;2022-11-15T09:15:16;9.60;99.90
1806;DHT22;901;48.142;11.516;2022-11-15T09:17:43;9.70;99.90
1806;DHT22;901;48.142;11.516;2022-11-15T09:20:10;9.80;99.90
1806;DHT22;901;48.142;11.516;2022-11-15T09:22:37;9.90;99.90
1806;DHT22;901;48.142;11.516;2022-11-15T09:25:06;10.00;99.90
1806;DHT22;901;48.142;11.516;2022-11-15T09:27:33;10.10;99.90
1806;DHT22;901;48.142;11.516;2022-11-15T09:30:01;10.10;99.90
1806;DHT22;901;48.142;11.516;2022-11-15T09:32:29;10.20;99.90
1806;DHT22;901;48.142;11.516;2022-11-15T09:34:56;10.30;99.90
1806;DHT22;901;48.142;11.516;2022-11-15T09:37:23;10.30;99.90
1806;DHT22;901;48.142;11.516;2022-11-15T09:39:49;10.50;99.90
1806;DHT22;901;48.142;11.516;2022-11-15T09:42:39;10.50;99.90
1806;DHT22;901;48.142;11.516;2022-11-15T09:45:18;10.60;99.90
1806;DHT22;901;48.142;11.516;2022-11-15T09:48:04;10.70;99.90
1806;DHT22;901;48.142;11.516;2022-11-15T09:50:38;10.80;99.90
1806;DHT22;901;48.142;11.516;2022-11-15T09:53:12;10.80;99.90
1806;DHT22;901;48.142;11.516;2022-11-15T09:55:47;10.90;99.90
1806;DHT22;901;48.142;11.516;2022-11-15T09:58:21;11.00;99.90
1806;DHT22;901;48.142;11.516;2022-11-15T10:00:51;11.20;99.90
1806;DHT22;901;48.142;11.516;2022-11-15T10:03:25;11.20;99.90
1806;DHT22;901;48.142;11.516;2022-11-15T10:05:56;11.20;99.90
1806;DHT22;901;48.142;11.516;2022-11-15T10:08:35;11.30;99.90
1806;DHT22;901;48.142;11.516;2022-11-15T10:11:07;11.30;99.90
1806;DHT22;901;48.142;11.516;2022-11-15T10:13:37;11.30;99.90
1806;DHT22;901;48.142;11.516;2022-11-15T10:16:22;11.40;99.90
1806;DHT22;901;48.142;11.516;2022-11-15T10:19:03;11.40;99.90
1806;DHT22;901;48.142;11.516;2022-11-15T10:21:42;11.50;99.90
1806;DHT22;901;48.142;11.516;2022-11-15T10:24:17;11.60;99.90
1806;DHT22;901;48.142;11.516;2022-11-15T10:26:47;11.60;99.90
1806;DHT22;901;48.142;11.516;2022-11-15T10:29:20;11.70;99.90
1806;DHT22;901;48.142;11.516;2022-11-15T10:31:51;11.80;99.90
1806;DHT22;901;48.142;11.516;2022-11-15T10:34:23;11.90;99.90
1806;DHT22;901;48.142;11.516;2022-11-15T10:36:55;12.00;99.90
1806;DHT22;901;48.142;11.516;2022-11-15T10:39:27;12.10;99.90
1806;DHT22;901;48.142;11.516;2022-11-15T10:41:54;12.10;99.90
1806;DHT22;901;48.142;11.516;2022-11-15T10:44:28;12.20;99.90
1806;DHT22;901;48.142;11.516;2022-11-15T10:47:29;12.20;99.90
1806;DHT22;901;48.142;11.516;2022-11-15T10:50:03;12.20;99.90
1806;DHT22;901;48.142;11.516;2022-11-15T10:52:35;12.40;99.90
1806;DHT22;901;48.142;11.516;2022-11-15T10:55:21;12.40;99.90
1806;DHT22;901;48.142;11.516;2022-11-15T10:57:54;12.60;99.90
1806;DHT22;901;48.142;11.516;2022-11-15T11:00:32;12.60;99.90
1806;DHT22;901;48.142;11.516;2022-11-15T11:03:05;12.60;99.90
1806;DHT22;901;48.142;11.516;2022-11-15T11:05:35;12.70;99.90
1806;DHT22;901;48.142;11.516;2022-11-15T11:08:18;12.80;99.90
1806;DHT22;901;48.142;11.516;2022-11-15T11:10:52;12.80;99.90
1806;DHT22;901;48.142;11.516;2022-11-15T11:13:23;12.90;99.90
1806;DHT22;901;48.142;11.516;2022-11-15T11:15:55;13.00;99.90
1806;DHT22;901;48.142;11.516;2022-11-15T11:18:27;13.10;99.90
1806;DHT22;901;48.142;11.516;2022-11-15T11:21:02;13.20;99.90
1806;DHT22;901;48.142;11.516;2022-11-15T11:23:42;13.20;99.90
1806;DHT22;901;48.142;11.516;2022-11-15T11:26:25;13.30;99.90
1806;DHT22;901;48.142;11.516;2022-11-15T11:29:02;13.40;99.90
1806;DHT22;901;48.142;11.516;2022-11-15T11:31:38;13.40;99.90
1806;DHT22;901;48.142;11.516;2022-11-15T11:34:27;13.50;99.90
1806;DHT22;901;48.142;11.516;2022-11-15T11:37:02;13.50;99.90
1806;DHT22;901;48.142;11.516;2022-11-15T11:39:37;13.50;99.90
1806;DHT22;901;48.142;11.516;2022-11-15T11:42:17;13.50;99.90
1806;DHT22;901;48.142;11.516;2022-11-15T11:44:58;13.60;99.90
1806;DHT22;901;48.142;11.516;2022-11-15T11:47:31;13.70;99.90
1806;DHT22;901;48.142;11.516;2022-11-15T11:50:10;13.70;99.90
1806;DHT22;901;48.142;11.516;2022-11-15T11:52:41;13.80;99.90
1806;DHT22;901;48.142;11.516;2022-11-15T11:55:15;13.70;99.90
1806;DHT22;901;48.142;11.516;2022-11-15T11:57:47;13.70;99.90
1806;DHT22;901;48.142;11.516;2022-11-15T12:00:18;13.70;99.90
1806;DHT22;901;48.142;11.516;2022-11-15T12:02:52;13.70;99.90
1806;DHT22;901;48.142;11.516;2022-11-15T12:05:29;13.80;99.90
1806;DHT22;901;48.142;11.516;2022-11-15T12:08:04;13.80;99.90
1806;DHT22;901;48.142;11.516;2022-11-15T12:10:37;13.80;99.90
1806;DHT22;901;48.142;11.516;2022-11-15T12:13:13;13.90;99.90
1806;DHT22;901;48.142;11.516;2022-11-15T12:15:48;13.90;99.90
1806;DHT22;901;48.142;11.516;2022-11-15T12:18:19;14.00;99.90
1806;DHT22;901;48.142;11.516;2022-11-15T12:20:54;14.00;99.90
1806;DHT22;901;48.142;11.516;2022-11-15T12:23:27;14.10;99.90
1806;DHT22;901;48.142;11.516;2022-11-15T12:25:57;14.00;99.90
1806;DHT22;901;48.142;11.516;2022-11-15T12:28:33;14.00;99.90
1806;DHT22;901;48.142;11.516;2022-11-15T12:31:04;14.00;99.90
1806;DHT22;901;48.142;11.516;2022-11-15T12:33:36;14.10;99.90
1806;DHT22;901;48.142;11.516;2022-11-15T12:36:08;14.20;99.90
1806;DHT22;901;48.142;11.516;2022-11-15T12:38:56;14.20;99.90
1806;DHT22;901;48.142;11.516;2022-11-15T12:41:25;14.30;99.90
1806;DHT22;901;48.142;11.516;2022-11-15T12:43:55;14.30;99.90
1806;DHT22;901;48.142;11.516;2022-11-15T12:47:00;14.40;99.90
1806;DHT22;901;48.142;11.516;2022-11-15T12:49:45;14.40;99.90
1806;DHT22;901;48.142;11.516;2022-11-15T12:52:13;14.60;99.90
1806;DHT22;901;48.142;11.516;2022-11-15T12:55:00;14.60;99.90
1806;DHT22;901;48.142;11.516;2022-11-15T12:57:36;14.60;99.90
1806;DHT22;901;48.142;11.516;2022-11-15T13:03:24;14.70;99.90
1806;DHT22;901;48.142;11.516;2022-11-15T13:06:07;14.60;99.90
1806;DHT22;901;48.142;11.516;2022-11-15T13:08:47;14.60;99.90
1806;DHT22;901;48.142;11.516;2022-11-15T13:11:46;14.70;99.90
1806;DHT22;901;48.142;11.516;2022-11-15T13:17:26;14.60;99.90
1806;DHT22;901;48.142;11.516;2022-11-15T13:19:59;14.60;99.90
1806;DHT22;901;48.142;11.516;2022-11-15T13:22:38;14.60;99.90
1806;DHT22;901;48.142;11.516;2022-11-15T13:28:27;14.70;99.90
1806;DHT22;901;48.142;11.516;2022-11-15T13:30:58;14.60;99.90
1806;DHT22;901;48.142;11.516;2022-11-15T13:33:31;14.70;99.90
1806;DHT22;901;48.142;11.516;2022-11-15T13:36:07;14.70;99.90
1806;DHT22;901;48.142;11.516;2022-11-15T13:38:41;14.70;99.90
1806;DHT22;901;48.142;11.516;2022-11-15T13:41:17;14.80;99.90
1806;DHT22;901;48.142;11.516;2022-11-15T13:43:45;14.80;99.90
1806;DHT22;901;48.142;11.516;2022-11-15T13:46:15;14.70;99.90
1806;DHT22;901;48.142;11.516;2022-11-15T13:48:44;14.70;99.90
1806;DHT22;901;48.142;11.516;2022-11-15T13:51:17;14.70;99.90
1806;DHT22;901;48.142;11.516;2022-11-15T13:53:56;14.70;99.90
1806;DHT22;901;48.142;11.516;2022-11-15T13:56:27;14.70;99.90
1806;DHT22;901;48.142;11.516;2022-11-15T13:58:57;14.70;99.90
1806;DHT22;901;48.142;11.516;2022-11-15T14:01:28;14.60;99.90
1806;DHT22;901;48.142;11.516;2022-11-15T14:04:01;14.60;99.90
1806;DHT22;901;48.142;11.516;2022-11-15T14:06:44;14.50;99.90
1806;DHT22;901;48.142;11.516;2022-11-15T14:09:30;14.40;99.90
1806;DHT22;901;48.142;11.516;2022-11-15T14:12:02;14.40;99.90
1806;DHT22;901;48.142;11.516;2022-11-15T14:14:30;14.30;99.90
1806;DHT22;901;48.142;11.516;2022-11-15T14:17:00;14.30;99.90
1806;DHT22;901;48.142;11.516;2022-11-15T14:19:39;14.30;99.90
1806;DHT22;901;48.142;11.516;2022-11-15T14:22:13;14.30;99.90
1806;DHT22;901;48.142;11.516;2022-11-15T14:24:43;14.40;99.90
1806;DHT22;901;48.142;11.516;2022-11-15T14:27:23;14.30;99.90
1806;DHT22;901;48.142;11.516;2022-11-15T14:29:51;14.30;99.90
1806;DHT22;901;48.142;11.516;2022-11-15T14:32:20;14.40;99.90
1806;DHT22;901;48.142;11.516;2022-11-15T14:34:53;14.40;99.90
1806;DHT22;901;48.142;11.516;2022-11-15T14:37:24;14.30;99.90
1806;DHT22;901;48.142;11.516;2022-11-15T14:39:54;14.20;99.90
1806;DHT22;901;48.142;11.516;2022-11-15T14:42:24;14.10;99.90
1806;DHT22;901;48.142;11.516;2022-11-15T14:44:54;14.10;99.90
1806;DHT22;901;48.142;11.516;2022-11-15T14:47:21;14.00;99.90
1806;DHT22;901;48.142;11.516;2022-11-15T14:49:49;13.90;99.90
1806;DHT22;901;48.142;11.516;2022-11-15T14:52:26;13.90;99.90
1806;DHT22;901;48.142;11.516;2022-11-15T14:54:57;13.70;99.90
1806;DHT22;901;48.142;11.516;2022-11-15T14:57:24;13.50;99.90
1806;DHT22;901;48.142;11.516;2022-11-15T14:59:52;13.30;99.90
1806;DHT22;901;48.142;11.516;2022-11-15T15:02:23;13.20;99.90
1806;DHT22;901;48.142;11.516;2022-11-15T15:04:52;13.10;99.90
1806;DHT22;901;48.142;11.516;2022-11-15T15:07:21;13.00;99.90
1806;DHT22;901;48.142;11.516;2022-11-15T15:09:52;12.80;99.90
1806;DHT22;901;48.142;11.516;2022-11-15T15:12:22;12.70;99.90
1806;DHT22;901;48.142;11.516;2022-11-15T15:14:52;12.60;99.90
1806;DHT22;901;48.142;11.516;2022-11-15T15:17:19;12.50;99.90
1806;DHT22;901;48.142;11.516;2022-11-15T15:19:47;12.40;99.90
1806;DHT22;901;48.142;11.516;2022-11-15T15:22:18;12.20;99.90
1806;DHT22;901;48.142;11.516;2022-11-15T15:24:49;12.20;99.90
1806;DHT22;901;48.142;11.516;2022-11-15T15:27:20;12.00;99.90
1806;DHT22;901;48.142;11.516;2022-11-15T15:29:47;11.90;99.90
1806;DHT22;901;48.142;11.516;2022-11-15T15:32:14;11.80;99.90
1806;DHT22;901;48.142;11.516;2022-11-15T15:34:41;11.60;99.90
1806;DHT22;901;48.142;11.516;2022-11-15T15:37:17;11.50;99.90
1806;DHT22;901;48.142;11.516;2022-11-15T15:39:46;11.40;99.90
1806;DHT22;901;48.142;11.516;2022-11-15T15:42:15;11.30;99.90
1806;DHT22;901;48.142;11.516;2022-11-15T15:44:44;11.20;99.90
1806;DHT22;901;48.142;11.516;2022-11-15T15:47:12;11.20;99.90
1806;DHT22;901;48.142;11.516;2022-11-15T15:49:40;11.10;99.90
1806;DHT22;901;48.142;11.516;2022-11-15T15:52:07;11.00;99.90
1806;DHT22;901;48.142;11.516;2022-11-15T15:54:34;11.00;99.90
1806;DHT22;901;48.142;11.516;2022-11-15T15:57:01;10.90;99.90
1806;DHT22;901;48.142;11.516;2022-11-15T15:59:28;10.80;99.90
1806;DHT22;901;48.142;11.516;2022-11-15T16:01:57;10.80;99.90
1806;DHT22;901;48.142;11.516;2022-11-15T16:04:24;10.70;99.90
1806;DHT22;901;48.142;11.516;2022-11-15T16:06:52;10.60;99.90
1806;DHT22;901;48.142;11.516;2022-11-15T16:09:22;10.60;99.90
1806;DHT22;901;48.142;11.516;2022-11-15T16:12:11;10.60;99.90
1806;DHT22;901;48.142;11.516;2022-11-15T16:14:44;10.60;99.90
1806;DHT22;901;48.142;11.516;2022-11-15T16:17:16;10.50;99.90
1806;DHT22;901;48.142;11.516;2022-11-15T16:19:44;10.40;99.90
1806;DHT22;901;48.142;11.516;2022-11-15T16:22:12;10.40;99.90
1806;DHT22;901;48.142;11.516;2022-11-15T16:24:47;10.50;99.90
1806;DHT22;901;48.142;11.516;2022-11-15T16:27:15;10.50;99.90
1806;DHT22;901;48.142;11.516;2022-11-15T16:29:43;10.50;99.90
1806;DHT22;901;48.142;11.516;2022-11-15T16:32:14;10.50;99.90
1806;DHT22;901;48.142;11.516;2022-11-15T16:34:41;10.50;99.90
1806;DHT22;901;48.142;11.516;2022-11-15T16:37:21;10.50;99.90
1806;DHT22;901;48.142;11.516;2022-11-15T16:39:48;10.40;99.90
1806;DHT22;901;48.142;11.516;2022-11-15T16:42:17;10.40;99.90
1806;DHT22;901;48.142;11.516;2022-11-15T16:44:45;10.40;99.90
1806;DHT22;901;48.142;11.516;2022-11-15T16:47:17;10.30;99.90
1806;DHT22;901;48.142;11.516;2022-11-15T16:49:45;10.40;99.90